createdAt,value
2018-12-08T00:00:24.953Z,20.77
2018-12-08T00:02:53.420Z,21.63
2018-12-08T00:05:21.876Z,20.43
2018-12-08T00:07:50.529Z,20.17
2018-12-08T00:10:18.969Z,19.37
2018-12-08T00:12:47.432Z,18.57
2018-12-08T00:15:16.038Z,17.57
2018-12-08T00:17:44.495Z,18.30
2018-12-08T00:20:12.919Z,19.40
2018-12-08T00:22:42.486Z,18.93
2018-12-08T00:25:10.916Z,19.20
2018-12-08T00:27:39.361Z,18.20
2018-12-08T00:30:19.548Z,19.10
2018-12-08T00:32:48.756Z,18.90
2018-12-08T00:35:17.211Z,18.17
2018-12-08T00:37:46.597Z,19.40
2018-12-08T00:40:16.547Z,16.60
2018-12-08T00:42:44.992Z,18.40
2018-12-08T00:45:13.508Z,17.70
2018-12-08T00:47:42.709Z,17.77
2018-12-08T00:50:11.174Z,18.47
2018-12-08T00:52:40.445Z,16.90
2018-12-08T00:55:08.936Z,16.47
2018-12-08T00:57:37.385Z,16.77
2018-12-08T01:00:05.464Z,16.43
2018-12-08T01:02:33.900Z,15.63
2018-12-08T01:05:02.353Z,17.13
2018-12-08T01:07:30.948Z,17.37
2018-12-08T01:10:00.146Z,16.20
2018-12-08T01:12:29.350Z,16.90
2018-12-08T01:14:58.622Z,15.33
2018-12-08T01:17:27.073Z,16.00
2018-12-08T01:19:55.519Z,16.20
2018-12-08T01:22:24.019Z,16.10
2018-12-08T01:24:52.461Z,15.40
2018-12-08T01:27:21.656Z,14.07
2018-12-08T01:29:51.001Z,14.03
2018-12-08T01:32:19.965Z,15.03
2018-12-08T01:34:49.166Z,14.20
2018-12-08T01:37:18.544Z,14.93
2018-12-08T01:39:46.987Z,14.03
2018-12-08T01:42:15.427Z,13.37
2018-12-08T01:44:45.007Z,13.20
2018-12-08T01:47:13.455Z,13.07
2018-12-08T01:49:41.905Z,12.27
2018-12-08T01:52:10.555Z,12.23
2018-12-08T01:54:39.002Z,12.97
2018-12-08T01:57:07.442Z,12.23
2018-12-08T01:59:36.911Z,12.10
2018-12-08T02:02:05.371Z,12.43
2018-12-08T02:04:33.812Z,12.03
2018-12-08T02:07:02.326Z,12.03
2018-12-08T02:09:30.778Z,11.77
2018-12-08T02:11:59.217Z,11.10
2018-12-08T02:14:28.009Z,10.97
2018-12-08T02:16:56.486Z,11.50
2018-12-08T02:19:25.104Z,11.20
2018-12-08T02:21:54.360Z,10.03
2018-12-08T02:24:22.788Z,10.83
2018-12-08T02:26:51.966Z,9.97
2018-12-08T02:29:21.353Z,10.50
2018-12-08T02:31:49.799Z,10.37
2018-12-08T02:34:18.235Z,10.23
2018-12-08T02:36:47.723Z,10.20
2018-12-08T02:39:16.152Z,10.03
2018-12-08T02:41:44.595Z,10.13
2018-12-08T02:44:14.030Z,10.63
2018-12-08T02:46:42.463Z,10.00
2018-12-08T02:49:10.892Z,9.30
2018-12-08T02:51:39.519Z,9.37
2018-12-08T02:54:07.937Z,9.33
2018-12-08T02:56:36.373Z,9.13
2018-12-08T02:59:05.137Z,9.43
2018-12-08T03:01:33.573Z,9.50
2018-12-08T03:04:02.782Z,9.10
2018-12-08T03:06:31.526Z,9.23
2018-12-08T03:08:59.952Z,8.07
2018-12-08T03:11:28.377Z,9.00
2018-12-08T03:13:56.975Z,8.43
2018-12-08T03:16:25.418Z,8.47
2018-12-08T03:18:53.846Z,7.97
2018-12-08T03:21:24.056Z,8.90
2018-12-08T03:23:52.496Z,8.10
2018-12-08T03:26:20.916Z,9.13
2018-12-08T03:28:49.599Z,7.60
2018-12-08T03:31:18.045Z,7.73
2018-12-08T03:33:46.473Z,7.97
2018-12-08T03:36:15.737Z,7.87
2018-12-08T03:38:44.164Z,7.60
2018-12-08T03:41:13.372Z,7.70
2018-12-08T03:43:43.012Z,8.07
2018-12-08T03:46:11.456Z,7.60
2018-12-08T03:48:40.673Z,6.57
2018-12-08T03:51:09.311Z,7.57
2018-12-08T03:53:37.738Z,6.97
2018-12-08T03:56:06.209Z,8.07
2018-12-08T03:58:34.692Z,7.20
2018-12-08T04:01:03.126Z,7.30
2018-12-08T04:03:31.553Z,6.87
2018-12-08T04:06:00.391Z,7.30
2018-12-08T04:08:28.739Z,7.13
2018-12-08T04:10:57.186Z,7.20
2018-12-08T04:13:26.422Z,6.60
2018-12-08T04:15:54.905Z,7.30
2018-12-08T04:18:23.369Z,6.27
2018-12-08T04:20:52.091Z,6.30
2018-12-08T04:23:20.522Z,7.07
2018-12-08T04:25:48.969Z,6.27
2018-12-08T04:28:17.875Z,6.80
2018-12-08T04:30:47.089Z,6.80
2018-12-08T04:33:16.284Z,6.30
2018-12-08T04:35:45.644Z,6.80
2018-12-08T04:38:14.072Z,6.80
2018-12-08T04:40:42.508Z,7.07
2018-12-08T04:43:12.051Z,6.13
2018-12-08T04:45:41.253Z,6.43
2018-12-08T04:48:09.696Z,6.37
2018-12-08T04:50:38.284Z,6.10
2018-12-08T04:53:06.723Z,5.93
2018-12-08T04:55:35.149Z,6.23
2018-12-08T04:58:03.921Z,6.17
2018-12-08T05:00:32.344Z,7.20
2018-12-08T05:03:00.760Z,7.20
2018-12-08T05:05:29.261Z,7.90
2018-12-08T05:07:57.684Z,8.10
2018-12-08T05:10:26.871Z,7.83
2018-12-08T05:12:56.336Z,8.40
2018-12-08T05:15:24.774Z,8.37
2018-12-08T05:17:53.206Z,9.40
2018-12-08T05:20:21.734Z,8.13
2018-12-08T05:22:50.196Z,8.70
2018-12-08T05:25:19.380Z,9.40
2018-12-08T05:27:48.157Z,9.37
2018-12-08T05:30:16.592Z,9.53
2018-12-08T05:32:45.021Z,10.30
2018-12-08T05:35:13.613Z,10.83
2018-12-08T05:37:42.839Z,10.40
2018-12-08T05:40:11.493Z,11.07
2018-12-08T05:42:40.998Z,11.40
2018-12-08T05:45:09.454Z,12.90
2018-12-08T05:47:37.876Z,11.93
2018-12-08T05:50:06.726Z,12.63
2018-12-08T05:52:35.165Z,12.87
2018-12-08T05:55:03.931Z,12.00
2018-12-08T05:57:33.370Z,12.57
2018-12-08T06:00:01.861Z,13.37
2018-12-08T06:02:30.292Z,14.40
2018-12-08T06:04:59.638Z,14.30
2018-12-08T06:07:28.057Z,15.63
2018-12-08T06:09:56.480Z,14.73
2018-12-08T06:12:25.218Z,16.23
2018-12-08T06:14:53.654Z,14.70
2018-12-08T06:17:22.089Z,15.57
2018-12-08T06:19:50.762Z,16.13
2018-12-08T06:22:19.210Z,15.73
2018-12-08T06:24:47.667Z,15.93
2018-12-08T06:27:16.245Z,16.37
2018-12-08T06:29:45.270Z,16.93
2018-12-08T06:32:13.716Z,16.40
2018-12-08T06:34:43.183Z,16.97
2018-12-08T06:37:11.612Z,17.20
2018-12-08T06:39:40.051Z,16.00
2018-12-08T06:42:09.685Z,17.20
2018-12-08T06:44:38.901Z,17.30
2018-12-08T06:47:07.340Z,17.67
2018-12-08T06:49:36.017Z,17.87
2018-12-08T06:52:04.477Z,18.17
2018-12-08T06:54:32.913Z,18.83
2018-12-08T06:57:02.503Z,18.97
2018-12-08T06:59:30.951Z,19.93
2018-12-08T07:01:59.397Z,21.77
2018-12-08T07:04:28.124Z,20.50
2018-12-08T07:06:56.548Z,20.27
2018-12-08T07:09:24.969Z,20.47
2018-12-08T07:11:53.571Z,19.90
2018-12-08T07:14:22.000Z,20.83
2018-12-08T07:16:50.445Z,19.77
2018-12-08T07:19:19.233Z,19.30
2018-12-08T07:21:48.443Z,18.03
2018-12-08T07:24:17.661Z,18.97
2018-12-08T07:26:46.303Z,19.60
2018-12-08T07:29:14.731Z,18.50
2018-12-08T07:31:43.164Z,18.53
2018-12-08T07:34:11.762Z,17.37
2018-12-08T07:36:40.968Z,18.50
2018-12-08T07:39:10.176Z,18.17
2018-12-08T07:41:39.558Z,16.97
2018-12-08T07:44:09.388Z,16.70
2018-12-08T07:46:38.584Z,15.67
2018-12-08T07:49:07.853Z,16.27
2018-12-08T07:51:36.283Z,15.90
2018-12-08T07:54:04.776Z,15.80
2018-12-08T07:56:33.277Z,15.50
2018-12-08T07:59:01.730Z,15.30
2018-12-08T08:01:30.168Z,14.93
2018-12-08T08:03:58.736Z,14.27
2018-12-08T08:06:27.417Z,14.07
2018-12-08T08:08:55.853Z,15.23
2018-12-08T08:11:24.493Z,14.63
2018-12-08T08:13:52.933Z,14.37
2018-12-08T08:16:21.359Z,15.17
2018-12-08T08:18:49.960Z,14.70
2018-12-08T08:21:19.161Z,14.27
2018-12-08T08:23:48.354Z,13.67
2018-12-08T08:26:17.604Z,13.27
2018-12-08T08:28:46.040Z,14.20
2018-12-08T08:31:15.237Z,12.80
2018-12-08T08:33:44.617Z,12.43
2018-12-08T08:36:13.061Z,12.60
2018-12-08T08:38:41.502Z,12.43
2018-12-08T08:41:10.851Z,11.53
2018-12-08T08:43:39.282Z,12.23
2018-12-08T08:46:08.491Z,11.47
2018-12-08T08:48:37.137Z,12.67
2018-12-08T08:51:05.579Z,14.67
2018-12-08T08:53:34.012Z,16.07
2018-12-08T08:56:03.812Z,14.13
2018-12-08T08:58:32.236Z,14.53
2018-12-08T09:01:00.690Z,13.57
2018-12-08T09:03:30.072Z,13.47
2018-12-08T09:05:58.552Z,13.47
2018-12-08T09:08:27.949Z,13.80
2018-12-08T09:10:56.469Z,13.30
2018-12-08T09:13:25.665Z,13.30
2018-12-08T09:15:54.863Z,14.13
2018-12-08T09:18:24.350Z,13.43
2018-12-08T09:20:52.800Z,12.30
2018-12-08T09:23:21.231Z,13.40
2018-12-08T09:25:50.507Z,12.53
2018-12-08T09:28:19.716Z,12.60
2018-12-08T09:30:48.916Z,12.60
2018-12-08T09:33:18.184Z,12.17
2018-12-08T09:35:46.637Z,11.77
2018-12-08T09:38:15.072Z,11.73
2018-12-08T09:40:44.295Z,12.10
2018-12-08T09:43:12.739Z,11.97
2018-12-08T09:45:41.918Z,11.80
2018-12-08T09:48:09.886Z,10.73
2018-12-08T09:50:38.312Z,11.20
2018-12-08T09:53:12.172Z,10.83
2018-12-08T09:55:40.626Z,11.37
2018-12-08T09:58:09.071Z,11.23
2018-12-08T10:00:38.333Z,10.43
2018-12-08T10:03:06.782Z,10.63
2018-12-08T10:05:35.217Z,11.17
2018-12-08T10:08:03.893Z,11.03
2018-12-08T10:10:32.350Z,11.00
2018-12-08T10:13:00.796Z,10.57
2018-12-08T10:15:29.300Z,11.07
2018-12-08T10:17:57.731Z,10.10
2018-12-08T10:20:26.945Z,11.60
2018-12-08T10:22:55.531Z,10.07
2018-12-08T10:25:24.013Z,10.57
2018-12-08T10:27:52.495Z,9.47
2018-12-08T10:30:21.341Z,10.60
2018-12-08T10:32:49.785Z,9.90
2018-12-08T10:35:18.226Z,10.10
2018-12-08T10:37:47.607Z,10.90
2018-12-08T10:40:16.935Z,9.97
2018-12-08T10:42:45.322Z,9.70
2018-12-08T10:45:14.852Z,10.33
2018-12-08T10:47:43.281Z,10.20
2018-12-08T10:50:11.717Z,10.20
2018-12-08T10:52:40.405Z,9.57
2018-12-08T10:55:08.855Z,9.57
2018-12-08T10:57:37.361Z,9.67
2018-12-08T11:00:05.176Z,9.43
2018-12-08T11:02:34.459Z,9.80
2018-12-08T11:05:03.468Z,9.07
2018-12-08T11:07:31.932Z,10.07
2018-12-08T11:10:08.960Z,9.10
2018-12-08T11:12:37.643Z,8.93
2018-12-08T11:15:05.563Z,8.13
2018-12-08T11:17:34.744Z,8.37
2018-12-08T11:20:03.529Z,8.90
2018-12-08T11:33:50.732Z,10.40
2018-12-08T11:36:19.198Z,9.13
2018-12-08T11:38:49.672Z,9.77
2018-12-08T11:41:18.622Z,9.23
2018-12-08T11:52:39.929Z,8.77
2018-12-08T11:55:08.380Z,9.93
2018-12-08T11:59:47.056Z,9.43
2018-12-08T12:02:16.658Z,9.33
2018-12-08T12:04:46.077Z,8.67
2018-12-08T12:07:15.254Z,8.80
2018-12-08T12:09:43.692Z,8.67
2018-12-08T12:12:12.116Z,8.70
2018-12-08T12:14:41.005Z,8.57
2018-12-08T12:17:09.441Z,8.57
2018-12-08T12:19:37.916Z,7.97
2018-12-08T12:22:06.557Z,9.10
2018-12-08T12:24:36.504Z,8.67
2018-12-08T12:27:04.938Z,8.33
2018-12-08T12:29:33.728Z,8.33
2018-12-08T12:32:02.147Z,8.43
2018-12-08T12:34:31.361Z,8.50
2018-12-08T12:37:00.141Z,8.10
2018-12-08T12:39:29.325Z,7.93
2018-12-08T12:41:58.236Z,7.97
2018-12-08T12:44:26.865Z,8.17
2018-12-08T12:46:55.324Z,7.77
2018-12-08T12:49:23.752Z,7.00
2018-12-08T12:51:53.132Z,8.13
2018-12-08T12:54:21.576Z,8.07
2018-12-08T12:56:50.032Z,7.87
2018-12-08T12:59:18.673Z,7.93
2018-12-08T13:01:47.108Z,7.80
2018-12-08T13:04:15.536Z,7.57
2018-12-08T13:06:44.116Z,8.00
2018-12-08T13:09:12.575Z,8.30
2018-12-08T13:11:40.904Z,7.47
2018-12-08T13:14:10.157Z,7.97
2018-12-08T13:16:38.594Z,7.20
2018-12-08T13:19:07.028Z,7.83
2018-12-08T13:21:35.715Z,7.43
2018-12-08T13:24:04.177Z,8.13
2018-12-08T13:26:33.239Z,7.83
2018-12-08T13:32:24.701Z,7.43
2018-12-08T13:34:53.161Z,6.90
2018-12-08T13:45:16.806Z,7.20
2018-12-08T13:47:46.408Z,6.70
2018-12-08T15:01:13.522Z,10.20
2018-12-08T15:04:09.209Z,9.93
2018-12-08T15:06:39.556Z,11.53
2018-12-08T15:09:08.208Z,13.03
2018-12-08T15:24:55.742Z,231.80
2018-12-08T15:27:25.699Z,224.23
2018-12-08T15:29:54.216Z,215.33
2018-12-08T15:32:22.762Z,178.37
2018-12-08T15:34:51.179Z,220.33
2018-12-08T15:37:19.868Z,213.67
2018-12-08T15:39:48.245Z,210.47
2018-12-08T15:42:16.724Z,239.67
2018-12-08T15:44:45.175Z,334.57
2018-12-08T15:47:13.562Z,298.13
2018-12-08T15:49:42.113Z,362.50
2018-12-08T15:52:10.953Z,311.93
2018-12-08T15:54:39.438Z,267.40
2018-12-08T15:57:07.876Z,322.63
2018-12-08T15:59:36.472Z,317.70
2018-12-08T16:02:04.893Z,282.73
2018-12-08T16:04:33.320Z,293.23
2018-12-08T16:07:01.896Z,286.40
2018-12-08T16:09:30.351Z,291.40
2018-12-08T16:11:58.772Z,274.03
2018-12-08T16:14:27.298Z,300.10
2018-12-08T16:16:55.719Z,320.90
2018-12-08T16:19:24.169Z,295.30
2018-12-08T16:21:52.893Z,213.77
2018-12-08T16:24:21.377Z,173.43
2018-12-08T16:26:49.849Z,165.53
2018-12-08T16:29:18.539Z,174.73
2018-12-08T16:31:47.024Z,213.03
2018-12-08T16:34:15.441Z,231.17
2018-12-08T16:36:44.588Z,235.43
2018-12-08T16:39:13.698Z,274.83
2018-12-08T16:41:42.123Z,265.03
2018-12-08T16:44:10.713Z,277.77
2018-12-08T16:46:39.195Z,295.63
2018-12-08T16:49:07.592Z,289.47
2018-12-08T16:51:36.209Z,285.43
2018-12-08T16:54:04.738Z,292.97
2018-12-08T16:56:33.421Z,280.30
2018-12-08T16:59:01.936Z,310.87
2018-12-08T17:01:30.308Z,344.00
2018-12-08T17:03:58.880Z,323.97
2018-12-08T17:06:27.556Z,313.93
2018-12-08T17:08:56.033Z,315.23
2018-12-08T17:11:24.479Z,420.70
2018-12-08T17:13:53.016Z,371.03
2018-12-08T17:16:21.424Z,377.23
2018-12-08T17:18:49.813Z,363.40
2018-12-08T17:21:18.540Z,265.63
2018-12-08T17:23:48.060Z,233.17
2018-12-08T17:26:16.788Z,177.93
2018-12-08T17:28:45.616Z,130.70
2018-12-08T17:31:14.040Z,105.03
2018-12-08T17:33:42.479Z,98.50
2018-12-08T17:36:11.168Z,112.23
2018-12-08T17:38:39.556Z,177.07
2018-12-08T17:41:07.941Z,139.17
2018-12-08T17:43:36.680Z,127.37
2018-12-08T17:46:05.097Z,123.00
2018-12-08T17:48:33.574Z,130.20
2018-12-08T17:51:02.062Z,143.63
2018-12-08T17:53:30.531Z,164.27
2018-12-08T17:55:59.003Z,164.10
2018-12-08T17:58:27.532Z,262.57
2018-12-08T18:00:56.684Z,128.80
2018-12-08T18:09:27.876Z,146.07
2018-12-08T18:11:56.284Z,173.87
2018-12-08T18:14:24.872Z,166.93
2018-12-08T18:16:53.317Z,163.30
2018-12-08T18:19:21.712Z,143.93
2018-12-08T18:21:50.156Z,156.07
2018-12-08T18:24:18.968Z,146.73
2018-12-08T18:26:47.358Z,152.77
2018-12-08T18:29:15.745Z,148.07
2018-12-08T18:31:44.173Z,143.97
2018-12-08T18:34:25.982Z,125.73
2018-12-08T18:36:56.395Z,123.10
2018-12-08T18:39:24.972Z,128.97
2018-12-08T18:41:53.402Z,136.37
2018-12-08T18:44:22.304Z,150.63
2018-12-08T18:46:50.756Z,155.70
2018-12-08T18:49:19.157Z,165.97
2018-12-08T18:51:47.728Z,173.87
2018-12-08T18:54:16.145Z,186.17
2018-12-08T18:56:44.852Z,172.60
2018-12-08T18:59:13.470Z,156.43
2018-12-08T19:01:41.901Z,156.07
2018-12-08T19:04:10.286Z,154.57
2018-12-08T19:06:38.849Z,153.50
2018-12-08T19:09:07.709Z,218.17
2018-12-08T19:11:36.200Z,282.63
2018-12-08T19:14:04.885Z,296.33
2018-12-08T19:16:33.268Z,201.33
2018-12-08T19:19:01.741Z,180.47
2018-12-08T19:21:30.456Z,205.23
2018-12-08T19:23:59.114Z,209.60
2018-12-08T19:26:27.493Z,191.80
2018-12-08T19:28:56.049Z,203.93
2018-12-08T19:31:24.529Z,208.60
2018-12-08T19:33:53.004Z,166.07
2018-12-08T19:36:21.561Z,164.40
2018-12-08T19:38:50.050Z,127.83
2018-12-08T19:41:18.430Z,106.67
2018-12-08T19:43:46.948Z,155.80
2018-12-08T19:46:15.424Z,167.27
2018-12-08T19:48:43.859Z,168.20
2018-12-08T19:51:12.564Z,167.00
2018-12-08T19:53:41.021Z,120.83
2018-12-08T19:56:09.492Z,77.67
2018-12-08T19:58:38.186Z,91.27
2018-12-08T20:01:06.673Z,142.27
2018-12-08T20:03:35.049Z,106.77
2018-12-08T20:06:03.628Z,101.57
2018-12-08T20:08:32.012Z,86.60
2018-12-08T20:11:00.506Z,112.53
2018-12-08T20:13:29.017Z,116.60
2018-12-08T20:15:57.443Z,105.83
2018-12-08T20:18:25.932Z,102.67
2018-12-08T20:20:54.463Z,102.47
2018-12-08T20:23:22.824Z,85.30
2018-12-08T20:25:51.184Z,77.10
2018-12-08T20:28:19.848Z,86.00
2018-12-08T20:30:48.223Z,82.80
2018-12-08T20:33:16.704Z,86.60
2018-12-08T20:35:45.145Z,85.43
2018-12-08T20:38:13.518Z,89.67
2018-12-08T20:40:41.947Z,98.07
2018-12-08T20:43:10.528Z,94.93
2018-12-08T20:45:39.021Z,93.83
2018-12-08T20:48:07.492Z,95.47
2018-12-08T20:50:36.277Z,91.20
2018-12-08T20:53:04.764Z,91.07
2018-12-08T20:55:33.256Z,68.57
2018-12-08T20:58:01.834Z,74.30
2018-12-08T21:00:30.207Z,70.13
2018-12-08T21:02:58.896Z,65.83
2018-12-08T21:05:27.373Z,66.17
2018-12-08T21:07:55.848Z,74.97
2018-12-08T21:10:24.216Z,74.93
2018-12-08T21:12:53.329Z,80.63
2018-12-08T21:15:21.804Z,92.33
2018-12-08T21:17:50.284Z,84.60
2018-12-08T21:20:19.872Z,74.80
2018-12-08T21:22:48.296Z,59.47
2018-12-08T21:25:16.703Z,54.50
2018-12-08T21:27:45.279Z,78.43
2018-12-08T21:30:13.710Z,82.93
2018-12-08T21:32:42.079Z,81.60
2018-12-08T21:35:10.812Z,90.57
2018-12-08T21:37:39.250Z,109.00
2018-12-08T21:40:11.772Z,82.33
2018-12-08T21:42:40.260Z,74.83
2018-12-08T21:45:08.746Z,75.37
2018-12-08T21:47:37.526Z,54.67
2018-12-08T21:50:06.525Z,59.67
2018-12-08T21:52:35.009Z,48.97
2018-12-08T21:55:03.424Z,39.23
2018-12-08T21:57:31.805Z,42.93
2018-12-08T22:00:00.426Z,44.57
2018-12-08T22:02:28.961Z,51.53
2018-12-08T22:04:57.350Z,57.23
2018-12-08T22:07:25.728Z,57.80
2018-12-08T22:09:54.471Z,60.63
2018-12-08T22:12:22.961Z,59.50
2018-12-08T22:14:56.973Z,59.17
2018-12-08T22:17:25.556Z,57.87
2018-12-08T22:19:54.085Z,57.27
2018-12-08T22:22:22.520Z,60.50
2018-12-08T22:24:50.897Z,59.73
2018-12-08T22:27:19.377Z,55.90
2018-12-08T22:29:48.061Z,60.87
2018-12-08T22:32:16.535Z,60.00
2018-12-08T22:34:45.021Z,56.93
2018-12-08T22:37:13.596Z,55.67
2018-12-08T22:39:42.028Z,55.17
2018-12-08T22:42:10.460Z,51.23
2018-12-08T22:44:39.144Z,43.47
2018-12-08T22:47:08.442Z,40.03
2018-12-08T22:49:36.823Z,38.73
2018-12-08T22:52:05.317Z,39.47
2018-12-08T22:54:33.784Z,38.27
2018-12-08T22:57:02.208Z,40.23
2018-12-08T22:59:30.945Z,38.23
2018-12-08T23:01:59.472Z,42.10
2018-12-08T23:04:27.850Z,39.80
2018-12-08T23:07:03.357Z,43.53
2018-12-08T23:09:32.148Z,41.13
2018-12-08T23:12:00.519Z,40.27
2018-12-08T23:14:29.104Z,41.10
2018-12-08T23:16:57.480Z,43.63
2018-12-08T23:19:25.960Z,43.20
2018-12-08T23:21:54.648Z,41.30
2018-12-08T23:24:23.136Z,40.87
2018-12-08T23:26:51.556Z,41.27
2018-12-08T23:29:20.299Z,40.87
2018-12-08T23:31:48.775Z,42.20
2018-12-08T23:34:17.128Z,41.43
2018-12-08T23:36:45.841Z,40.07
2018-12-08T23:39:14.200Z,38.47
2018-12-08T23:41:42.582Z,41.47
2018-12-08T23:44:11.088Z,39.23
2018-12-08T23:46:39.472Z,39.30
2018-12-08T23:49:11.372Z,37.17
2018-12-08T23:51:39.593Z,37.13
2018-12-08T23:54:07.971Z,37.70
2018-12-08T23:56:36.356Z,38.37
2018-12-08T23:59:05.049Z,40.57
